createdAt,value
2019-04-11T00:01:54.683Z,17.82
2019-04-11T00:04:24.814Z,16.82
2019-04-11T00:06:56.060Z,17.07
2019-04-11T00:09:27.011Z,17.23
2019-04-11T00:11:57.887Z,16.87
2019-04-11T00:14:27.974Z,16.37
2019-04-11T00:17:01.644Z,17.12
2019-04-11T00:19:31.789Z,16.67
2019-04-11T00:22:01.871Z,16.77
2019-04-11T00:24:31.879Z,16.52
2019-04-11T00:27:02.495Z,15.58
2019-04-11T00:29:34.443Z,15.45
2019-04-11T00:32:06.606Z,15.20
2019-04-11T00:34:37.338Z,16.17
2019-04-11T00:37:08.567Z,14.78
2019-04-11T00:39:39.830Z,15.90
2019-04-11T00:42:10.350Z,15.35
2019-04-11T00:44:41.148Z,14.95
2019-04-11T00:47:11.268Z,13.43
2019-04-11T00:49:42.957Z,14.18
2019-04-11T00:52:14.240Z,14.30
2019-04-11T00:54:44.836Z,13.55
2019-04-11T00:57:14.912Z,13.10
2019-04-11T00:59:45.102Z,13.32
2019-04-11T01:02:15.619Z,12.65
2019-04-11T01:04:45.685Z,12.82
2019-04-11T01:07:16.548Z,13.22
2019-04-11T01:09:46.510Z,12.78
2019-04-11T01:12:16.611Z,13.22
2019-04-11T01:14:46.904Z,12.90
2019-04-11T01:17:17.175Z,12.98
2019-04-11T01:19:47.114Z,12.53
2019-04-11T01:22:18.110Z,13.60
2019-04-11T01:24:48.768Z,13.53
2019-04-11T01:27:18.829Z,13.22
2019-04-11T01:29:49.504Z,14.20
2019-04-11T01:32:23.073Z,13.50
2019-04-11T01:34:55.087Z,14.80
2019-04-11T01:37:26.007Z,13.25
2019-04-11T01:40:01.377Z,13.50
2019-04-11T01:42:33.480Z,13.55
2019-04-11T01:45:05.239Z,13.95
2019-04-11T01:47:37.379Z,14.15
2019-04-11T01:50:08.446Z,13.75
2019-04-11T01:52:38.824Z,13.65
2019-04-11T01:55:10.065Z,14.45
2019-04-11T01:57:40.288Z,14.87
2019-04-11T02:00:13.456Z,15.13
2019-04-11T02:02:51.157Z,14.98
2019-04-11T02:05:27.208Z,14.18
2019-04-11T02:07:58.736Z,14.78
2019-04-11T02:10:28.959Z,14.95
2019-04-11T02:12:59.644Z,14.68
2019-04-11T02:15:30.919Z,14.75
2019-04-11T02:18:01.352Z,15.00
2019-04-11T02:20:31.517Z,14.93
2019-04-11T02:23:04.549Z,15.18
2019-04-11T02:25:42.878Z,14.30
2019-04-11T02:28:14.786Z,15.28
2019-04-11T02:30:48.466Z,14.45
2019-04-11T02:33:18.490Z,15.10
2019-04-11T02:35:49.489Z,15.10
2019-04-11T02:38:21.495Z,14.47
2019-04-11T02:40:52.572Z,15.15
2019-04-11T02:43:23.547Z,14.68
2019-04-11T02:46:08.794Z,14.53
2019-04-11T02:48:26.977Z,14.75
2019-04-11T02:50:58.414Z,14.00
2019-04-11T02:53:30.026Z,14.53
2019-04-11T02:56:01.113Z,13.90
2019-04-11T02:58:32.252Z,13.95
2019-04-11T03:01:04.990Z,13.95
2019-04-11T03:03:34.658Z,14.05
2019-04-11T03:06:04.655Z,13.22
2019-04-11T03:08:36.297Z,13.28
2019-04-11T03:11:07.761Z,13.60
2019-04-11T03:13:38.499Z,12.50
2019-04-11T03:16:24.982Z,13.55
2019-04-11T03:18:55.658Z,13.00
2019-04-11T03:21:17.947Z,12.78
2019-04-11T03:23:44.254Z,11.68
2019-04-11T03:26:14.320Z,10.93
2019-04-11T03:28:47.515Z,11.35
2019-04-11T03:31:58.337Z,11.80
2019-04-11T03:34:44.393Z,12.13
2019-04-11T03:37:06.836Z,12.28
2019-04-11T03:39:11.621Z,12.45
2019-04-11T03:41:38.756Z,13.13
2019-04-11T03:44:04.268Z,11.35
2019-04-11T03:46:44.655Z,13.30
2019-04-11T03:49:06.167Z,12.53
2019-04-11T03:51:30.532Z,12.58
2019-04-11T03:54:01.724Z,13.18
2019-04-11T03:56:32.955Z,11.90
2019-04-11T03:59:04.057Z,13.55
2019-04-11T04:01:35.107Z,12.58
2019-04-11T04:04:06.613Z,13.90
2019-04-11T04:06:37.948Z,13.40
2019-04-11T04:09:10.818Z,12.93
2019-04-11T04:11:44.850Z,12.85
2019-04-11T04:14:21.314Z,12.37
2019-04-11T04:17:11.483Z,13.62
2019-04-11T04:19:43.745Z,13.05
2019-04-11T04:22:16.589Z,13.50
2019-04-11T04:24:49.696Z,13.58
2019-04-11T04:27:23.309Z,14.83
2019-04-11T04:29:57.269Z,13.50
2019-04-11T04:32:25.137Z,14.05
2019-04-11T04:34:56.226Z,13.53
2019-04-11T04:37:29.441Z,13.43
2019-04-11T04:40:21.590Z,14.58
2019-04-11T04:42:37.046Z,14.90
2019-04-11T04:45:09.557Z,14.93
2019-04-11T04:47:46.831Z,14.47
2019-04-11T04:50:11.125Z,14.70
2019-04-11T04:52:42.911Z,14.45
2019-04-11T04:55:13.398Z,14.35
2019-04-11T04:57:44.955Z,14.43
2019-04-11T05:00:16.063Z,13.75
2019-04-11T05:02:47.895Z,13.72
2019-04-11T05:05:19.615Z,14.53
2019-04-11T05:07:49.934Z,14.18
2019-04-11T05:10:20.140Z,13.88
2019-04-11T05:12:51.388Z,13.83
2019-04-11T05:15:21.616Z,13.75
2019-04-11T05:17:53.199Z,13.75
2019-04-11T05:20:23.843Z,13.72
2019-04-11T05:22:54.102Z,13.72
2019-04-11T05:25:25.028Z,13.95
2019-04-11T05:27:55.986Z,14.05
2019-04-11T05:30:27.195Z,14.83
2019-04-11T05:32:57.760Z,14.83
2019-04-11T05:35:27.829Z,14.75
2019-04-11T05:37:57.977Z,14.63
2019-04-11T05:40:28.222Z,15.45
2019-04-11T05:42:58.241Z,14.63
2019-04-11T05:45:28.282Z,14.73
2019-04-11T05:47:58.656Z,15.20
2019-04-11T05:50:30.035Z,15.00
2019-04-11T05:53:03.435Z,15.78
2019-04-11T05:55:34.224Z,15.35
2019-04-11T05:58:08.661Z,14.45
2019-04-11T06:00:39.123Z,15.23
2019-04-11T06:03:10.122Z,15.03
2019-04-11T06:05:44.713Z,15.88
2019-04-11T06:08:23.506Z,15.70
2019-04-11T06:11:06.787Z,14.78
2019-04-11T06:13:50.942Z,15.60
2019-04-11T06:16:21.003Z,16.30
2019-04-11T06:19:01.643Z,18.12
2019-04-11T06:21:42.507Z,16.60
2019-04-11T06:24:18.202Z,15.80
2019-04-11T06:27:08.911Z,16.48
2019-04-11T06:29:59.497Z,16.35
2019-04-11T06:32:32.209Z,16.82
2019-04-11T06:35:13.594Z,17.77
2019-04-11T06:38:02.578Z,18.25
2019-04-11T06:41:02.630Z,16.85
2019-04-11T06:43:34.272Z,17.00
2019-04-11T06:46:25.058Z,16.62
2019-04-11T06:48:56.530Z,14.73
2019-04-11T06:51:30.975Z,17.10
2019-04-11T06:54:06.360Z,17.27
2019-04-11T06:56:38.163Z,17.42
2019-04-11T06:59:10.138Z,17.00
2019-04-11T07:01:42.632Z,16.90
2019-04-11T07:04:30.935Z,17.25
2019-04-11T07:07:04.584Z,16.25
2019-04-11T07:09:39.437Z,17.27
2019-04-11T07:12:20.527Z,17.23
2019-04-11T07:14:55.190Z,15.72
2019-04-11T07:17:45.973Z,17.82
2019-04-11T07:20:33.993Z,17.70
2019-04-11T07:23:22.233Z,18.15
2019-04-11T07:25:56.727Z,16.32
2019-04-11T07:28:41.695Z,17.42
2019-04-11T07:31:33.078Z,16.95
2019-04-11T07:34:14.937Z,17.52
2019-04-11T07:37:04.424Z,17.82
2019-04-11T07:39:53.452Z,16.80
2019-04-11T07:42:25.949Z,17.45
2019-04-11T07:44:57.799Z,16.32
2019-04-11T07:47:32.359Z,16.87
2019-04-11T07:50:04.129Z,17.05
2019-04-11T07:52:36.032Z,17.45
2019-04-11T07:55:06.758Z,17.00
2019-04-11T07:57:41.203Z,17.20
2019-04-11T08:00:15.059Z,17.10
2019-04-11T08:03:04.111Z,17.82
2019-04-11T08:05:52.589Z,17.75
2019-04-11T08:08:25.707Z,18.02
2019-04-11T08:11:15.915Z,17.17
2019-04-11T08:13:53.131Z,17.17
2019-04-11T08:16:40.259Z,17.10
2019-04-11T08:19:13.099Z,18.17
2019-04-11T08:21:56.990Z,18.85
2019-04-11T08:24:37.509Z,20.37
2019-04-11T08:27:25.556Z,21.50
2019-04-11T08:29:58.342Z,21.50
2019-04-11T08:32:47.429Z,22.07
2019-04-11T08:35:28.377Z,21.50
2019-04-11T08:38:01.140Z,21.40
2019-04-11T08:40:33.600Z,20.82
2019-04-11T08:43:06.584Z,21.87
2019-04-11T08:45:40.318Z,20.43
2019-04-11T08:48:12.891Z,21.45
2019-04-11T08:50:44.947Z,21.50
2019-04-11T08:53:20.514Z,24.27
2019-04-11T08:55:56.253Z,22.75
2019-04-11T08:58:33.103Z,21.55
2019-04-11T09:01:05.455Z,21.37
2019-04-11T09:03:42.004Z,23.18
2019-04-11T09:06:14.704Z,22.58
2019-04-11T09:09:04.906Z,22.98
2019-04-11T09:11:39.130Z,21.85
2019-04-11T09:14:28.286Z,20.45
2019-04-11T09:17:00.078Z,22.40
2019-04-11T09:19:49.333Z,22.93
2019-04-11T09:22:37.540Z,22.02
2019-04-11T09:25:10.902Z,21.87
2019-04-11T09:27:45.523Z,20.88
2019-04-11T09:30:23.324Z,21.23
2019-04-11T09:33:04.719Z,23.77
2019-04-11T09:35:49.224Z,25.23
2019-04-11T09:38:24.995Z,24.95
2019-04-11T09:40:58.688Z,25.85
2019-04-11T09:43:31.679Z,28.73
2019-04-11T09:46:03.832Z,28.17
2019-04-11T09:48:35.637Z,28.00
2019-04-11T09:51:13.472Z,25.77
2019-04-11T09:53:57.844Z,26.30
2019-04-11T09:56:36.369Z,26.80
2019-04-11T09:59:16.428Z,25.68
2019-04-11T10:01:58.252Z,25.08
2019-04-11T10:04:29.951Z,25.48
2019-04-11T10:07:11.132Z,25.50
2019-04-11T10:10:02.584Z,24.40
2019-04-11T10:12:38.317Z,25.02
2019-04-11T10:15:09.783Z,23.27
2019-04-11T10:17:42.486Z,24.32
2019-04-11T10:20:18.211Z,23.00
2019-04-11T10:23:05.197Z,21.02
2019-04-11T10:25:40.221Z,20.43
2019-04-11T10:28:30.294Z,18.90
2019-04-11T10:31:06.477Z,17.70
2019-04-11T10:33:55.447Z,18.48
2019-04-11T10:36:33.425Z,17.25
2019-04-11T10:39:21.550Z,16.15
2019-04-11T10:41:53.805Z,15.53
2019-04-11T10:44:28.403Z,16.73
2019-04-11T10:46:59.875Z,14.75
2019-04-11T10:49:44.217Z,14.00
2019-04-11T10:52:15.649Z,14.83
2019-04-11T10:54:49.110Z,15.70
2019-04-11T10:57:21.489Z,16.27
2019-04-11T10:59:52.939Z,16.35
2019-04-11T11:02:25.156Z,16.85
2019-04-11T11:04:57.044Z,15.32
2019-04-11T11:07:28.762Z,16.62
2019-04-11T11:10:12.123Z,15.38
2019-04-11T11:12:43.850Z,15.13
2019-04-11T11:15:15.702Z,15.23
2019-04-11T11:18:35.057Z,16.00
2019-04-11T11:20:50.183Z,15.00
2019-04-11T11:23:18.351Z,14.03
2019-04-11T11:25:53.349Z,14.75
2019-04-11T11:28:28.369Z,15.28
2019-04-11T11:31:03.258Z,15.60
2019-04-11T11:33:35.156Z,16.62
2019-04-11T11:36:17.229Z,14.23
2019-04-11T11:39:01.171Z,13.83
2019-04-11T11:41:34.907Z,13.78
2019-04-11T11:44:07.587Z,13.65
2019-04-11T11:46:48.671Z,13.43
2019-04-11T11:49:32.701Z,13.00
2019-04-11T11:52:04.360Z,13.53
2019-04-11T11:54:36.020Z,13.90
2019-04-11T11:57:08.683Z,13.30
2019-04-11T11:59:46.610Z,14.70
2019-04-11T12:02:20.868Z,14.00
2019-04-11T12:04:52.012Z,13.95
2019-04-11T12:07:33.786Z,14.28
2019-04-11T12:10:06.815Z,14.20
2019-04-11T12:12:42.108Z,15.23
2019-04-11T12:15:30.343Z,16.07
2019-04-11T12:18:11.103Z,14.85
2019-04-11T12:20:49.355Z,14.83
2019-04-11T12:23:27.338Z,14.95
2019-04-11T12:25:57.717Z,15.75
2019-04-11T12:28:37.226Z,16.10
2019-04-11T12:31:09.277Z,14.30
2019-04-11T12:33:43.787Z,14.40
2019-04-11T12:36:16.882Z,14.33
2019-04-11T12:39:05.273Z,14.38
2019-04-11T12:41:37.518Z,13.45
2019-04-11T12:44:09.169Z,14.30
2019-04-11T12:46:56.159Z,15.58
2019-04-11T12:49:27.834Z,16.05
2019-04-11T12:52:16.237Z,14.38
2019-04-11T12:54:47.817Z,13.43
2019-04-11T12:57:34.507Z,14.20
2019-04-11T13:00:10.594Z,15.28
2019-04-11T13:02:46.411Z,16.12
2019-04-11T13:05:21.119Z,15.18
2019-04-11T13:07:52.903Z,14.65
2019-04-11T13:10:24.209Z,14.55
2019-04-11T13:13:12.678Z,14.73
2019-04-11T13:15:44.272Z,14.87
2019-04-11T13:18:22.079Z,14.33
2019-04-11T13:21:02.960Z,12.78
2019-04-11T13:23:51.198Z,13.22
2019-04-11T13:26:22.859Z,14.43
2019-04-11T13:29:03.594Z,13.20
2019-04-11T13:31:47.455Z,13.83
2019-04-11T13:34:19.352Z,13.60
2019-04-11T13:36:51.161Z,14.07
2019-04-11T13:39:22.087Z,13.58
2019-04-11T13:42:05.595Z,12.45
2019-04-11T13:44:36.136Z,13.18
2019-04-11T13:47:24.290Z,13.08
2019-04-11T13:49:55.942Z,12.93
2019-04-11T13:52:39.474Z,12.88
2019-04-11T13:55:11.484Z,12.93
2019-04-11T13:57:59.572Z,12.98
2019-04-11T14:00:40.789Z,11.88
2019-04-11T14:03:28.987Z,11.97
2019-04-11T14:06:00.618Z,12.05
2019-04-11T14:08:32.260Z,12.55
2019-04-11T14:11:09.911Z,12.50
2019-04-11T14:13:44.711Z,12.68
2019-04-11T14:16:19.112Z,12.25
2019-04-11T14:19:02.886Z,11.97
2019-04-11T14:21:34.012Z,13.65
2019-04-11T14:24:17.792Z,14.23
2019-04-11T14:27:04.521Z,11.93
2019-04-11T14:29:42.439Z,11.65
2019-04-11T14:32:17.317Z,11.43
2019-04-11T14:35:05.550Z,11.12
2019-04-11T14:37:42.875Z,11.40
2019-04-11T14:40:21.272Z,12.30
2019-04-11T14:42:58.974Z,11.73
2019-04-11T14:45:45.642Z,12.90
2019-04-11T14:48:26.654Z,13.15
2019-04-11T14:51:04.316Z,14.98
2019-04-11T14:53:54.168Z,17.87
2019-04-11T14:56:29.075Z,15.90
2019-04-11T14:59:07.054Z,15.00
2019-04-11T15:01:37.084Z,16.32
2019-04-11T15:04:20.859Z,14.60
2019-04-11T15:06:58.395Z,15.20
2019-04-11T15:09:49.186Z,15.28
2019-04-11T15:12:23.694Z,14.93
2019-04-11T15:14:58.106Z,14.25
2019-04-11T15:17:32.249Z,15.60
2019-04-11T15:20:04.086Z,15.98
2019-04-11T15:22:39.320Z,17.00
2019-04-11T15:25:22.860Z,17.45
2019-04-11T15:28:12.579Z,16.73
2019-04-11T15:30:48.556Z,18.42
2019-04-11T15:33:29.365Z,19.67
2019-04-11T15:36:02.226Z,18.90
2019-04-11T15:38:50.135Z,19.65
2019-04-11T15:41:20.539Z,21.23
2019-04-11T15:43:52.221Z,19.50
2019-04-11T15:46:26.854Z,19.02
2019-04-11T15:49:21.130Z,18.10
2019-04-11T15:51:50.419Z,16.37
2019-04-11T15:54:38.678Z,14.90
2019-04-11T15:57:12.773Z,15.95
2019-04-11T15:59:46.540Z,16.12
2019-04-11T16:02:18.202Z,16.23
2019-04-11T16:04:49.853Z,16.75
2019-04-11T16:07:21.781Z,15.80
2019-04-11T16:09:53.487Z,16.17
2019-04-11T16:12:31.467Z,16.20
2019-04-11T16:15:09.030Z,15.30
2019-04-11T16:17:42.390Z,15.65
2019-04-11T16:20:13.299Z,16.52
2019-04-11T16:22:55.471Z,16.67
2019-04-11T16:25:29.016Z,16.40
2019-04-11T16:28:10.828Z,16.17
2019-04-11T16:30:42.821Z,17.42
2019-04-11T16:33:30.762Z,17.32
2019-04-11T16:36:20.516Z,16.75
2019-04-11T16:39:11.249Z,18.02
2019-04-11T16:41:55.017Z,16.75
2019-04-11T16:44:29.562Z,17.05
2019-04-11T16:47:03.951Z,17.62
2019-04-11T16:49:34.074Z,18.20
2019-04-11T16:52:07.569Z,18.45
2019-04-11T16:54:39.710Z,18.23
2019-04-11T16:57:07.605Z,19.12
2019-04-11T16:59:37.762Z,18.92
2019-04-11T17:02:08.021Z,19.55
2019-04-11T17:04:38.366Z,19.05
2019-04-11T17:07:26.622Z,19.45
2019-04-11T17:10:01.422Z,20.65
2019-04-11T17:12:33.040Z,20.62
2019-04-11T17:15:03.097Z,21.57
2019-04-11T17:17:33.273Z,23.22
2019-04-11T17:20:06.461Z,25.20
2019-04-11T17:22:36.757Z,28.85
2019-04-11T17:25:07.035Z,30.52
2019-04-11T17:27:37.048Z,34.05
2019-04-11T17:30:07.842Z,29.32
2019-04-11T17:32:37.973Z,27.20
2019-04-11T17:35:08.362Z,25.52
2019-04-11T17:37:38.393Z,27.17
2019-04-11T17:40:09.320Z,25.05
2019-04-11T17:42:39.267Z,24.82
2019-04-11T17:45:09.640Z,23.77
2019-04-11T17:47:39.837Z,24.67
2019-04-11T17:50:10.104Z,23.55
2019-04-11T17:52:40.789Z,24.30
2019-04-11T17:55:10.811Z,25.82
2019-04-11T17:57:40.841Z,25.60
2019-04-11T18:00:12.800Z,25.32
2019-04-11T18:02:42.788Z,24.02
2019-04-11T18:05:16.959Z,23.95
2019-04-11T18:07:46.989Z,23.20
2019-04-11T18:10:16.534Z,23.05
2019-04-11T18:12:46.473Z,24.25
2019-04-11T18:15:16.914Z,22.85
2019-04-11T18:17:46.909Z,21.93
2019-04-11T18:20:16.851Z,23.80
2019-04-11T18:22:50.181Z,24.12
2019-04-11T18:25:20.799Z,23.55
2019-04-11T18:27:52.393Z,24.10
2019-04-11T18:30:23.305Z,23.62
2019-04-11T18:32:54.025Z,23.32
2019-04-11T18:35:24.086Z,23.27
2019-04-11T18:37:54.599Z,24.15
2019-04-11T18:40:25.342Z,23.25
2019-04-11T18:42:55.647Z,23.18
2019-04-11T18:45:25.882Z,23.05
2019-04-11T18:47:57.222Z,23.62
2019-04-11T18:50:28.842Z,27.90
2019-04-11T18:53:00.082Z,26.15
2019-04-11T18:55:30.163Z,24.02
2019-04-11T18:58:01.712Z,25.68
2019-04-11T19:00:31.926Z,27.60
2019-04-11T19:03:02.342Z,26.05
2019-04-11T19:05:32.388Z,27.17
2019-04-11T19:08:02.401Z,28.10
2019-04-11T19:10:32.467Z,27.05
2019-04-11T19:13:02.451Z,27.22
2019-04-11T19:15:32.474Z,27.48
2019-04-11T19:18:06.810Z,27.22
2019-04-11T19:20:34.280Z,27.95
2019-04-11T19:23:07.629Z,26.42
2019-04-11T19:25:36.018Z,26.33
2019-04-11T19:28:06.309Z,26.45
2019-04-11T19:30:36.389Z,27.20
2019-04-11T19:33:06.401Z,27.58
2019-04-11T19:35:36.518Z,26.62
2019-04-11T19:38:12.012Z,26.33
2019-04-11T19:40:41.151Z,25.40
2019-04-11T19:43:11.276Z,25.60
2019-04-11T19:45:41.296Z,26.68
2019-04-11T19:48:11.250Z,26.30
2019-04-11T19:50:41.251Z,26.82
2019-04-11T19:53:11.209Z,27.80
2019-04-11T19:55:47.560Z,27.67
2019-04-11T19:58:20.554Z,27.32
2019-04-11T20:00:53.084Z,27.45
2019-04-11T20:03:24.178Z,26.60
2019-04-11T20:05:53.916Z,27.25
2019-04-11T20:08:23.892Z,27.25
2019-04-11T20:10:53.914Z,26.52
2019-04-11T20:13:23.875Z,26.27
2019-04-11T20:15:53.922Z,28.12
2019-04-11T20:18:23.948Z,27.98
2019-04-11T20:20:53.904Z,26.70
2019-04-11T20:23:24.159Z,28.17
2019-04-11T20:25:54.164Z,26.70
2019-04-11T20:28:26.609Z,27.93
2019-04-11T20:30:56.827Z,29.90
2019-04-11T20:33:27.695Z,29.57
2019-04-11T20:35:58.175Z,31.07
2019-04-11T20:38:28.228Z,38.15
2019-04-11T20:40:59.134Z,44.48
2019-04-11T20:43:29.173Z,42.17
2019-04-11T20:45:59.449Z,37.03
2019-04-11T20:48:30.874Z,35.17
2019-04-11T20:51:01.105Z,32.67
2019-04-11T20:53:31.042Z,32.53
2019-04-11T20:56:00.984Z,31.25
2019-04-11T20:58:31.083Z,30.65
2019-04-11T21:01:01.111Z,31.15
2019-04-11T21:03:31.707Z,32.00
2019-04-11T21:06:02.530Z,31.87
2019-04-11T21:08:36.616Z,30.32
2019-04-11T21:11:05.667Z,31.20
2019-04-11T21:13:38.067Z,30.25
2019-04-11T21:16:07.303Z,30.00
2019-04-11T21:18:37.602Z,29.52
2019-04-11T21:21:07.605Z,28.30
2019-04-11T21:23:37.601Z,29.20
2019-04-11T21:26:08.010Z,27.65
2019-04-11T21:28:37.951Z,28.25
2019-04-11T21:31:07.876Z,28.05
2019-04-11T21:33:37.820Z,27.98
2019-04-11T21:36:07.770Z,27.70
2019-04-11T21:38:37.683Z,29.20
2019-04-11T21:41:08.463Z,28.57
2019-04-11T21:43:38.606Z,27.93
2019-04-11T21:46:08.608Z,28.12
2019-04-11T21:48:38.613Z,31.15
2019-04-11T21:51:11.385Z,31.48
2019-04-11T21:53:44.411Z,29.45
2019-04-11T21:56:12.863Z,29.90
2019-04-11T21:58:42.954Z,32.53
2019-04-11T22:01:14.934Z,32.80
2019-04-11T22:03:46.577Z,32.23
2019-04-11T22:06:16.566Z,32.55
2019-04-11T22:08:46.708Z,32.05
2019-04-11T22:11:16.626Z,31.00
2019-04-11T22:13:46.559Z,31.33
2019-04-11T22:16:16.518Z,31.12
2019-04-11T22:18:46.545Z,31.10
2019-04-11T22:21:16.541Z,30.48
2019-04-11T22:23:48.854Z,28.30
2019-04-11T22:26:17.885Z,24.90
2019-04-11T22:28:47.844Z,23.65
2019-04-11T22:31:17.466Z,24.10
2019-04-11T22:33:48.957Z,22.35
2019-04-11T22:36:18.628Z,21.85
2019-04-11T22:38:48.492Z,21.65
2019-04-11T22:41:19.433Z,19.65
2019-04-11T22:43:49.114Z,19.10
2019-04-11T22:46:20.999Z,19.40
2019-04-11T22:48:50.230Z,18.70
2019-04-11T22:51:20.250Z,20.10
2019-04-11T22:53:59.979Z,19.32
2019-04-11T22:56:21.795Z,20.75
2019-04-11T22:58:51.808Z,25.30
2019-04-11T23:01:21.831Z,28.07
2019-04-11T23:04:02.089Z,24.18
2019-04-11T23:06:32.027Z,22.82
2019-04-11T23:09:02.317Z,23.60
2019-04-11T23:11:33.871Z,22.58
2019-04-11T23:14:03.886Z,21.15
2019-04-11T23:16:33.926Z,21.10
2019-04-11T23:19:04.149Z,20.85
2019-04-11T23:21:34.343Z,21.30
2019-04-11T23:24:11.878Z,21.45
2019-04-11T23:26:36.075Z,21.40
2019-04-11T23:29:06.118Z,22.13
2019-04-11T23:31:36.055Z,21.17
2019-04-11T23:34:06.070Z,22.13
2019-04-11T23:36:36.030Z,21.52
2019-04-11T23:39:06.921Z,20.72
2019-04-11T23:41:38.474Z,21.48
2019-04-11T23:44:08.417Z,24.10
2019-04-11T23:46:38.364Z,22.00
2019-04-11T23:49:08.330Z,23.85
2019-04-11T23:51:38.256Z,25.00
2019-04-11T23:54:08.238Z,24.95
2019-04-11T23:56:38.182Z,24.07
2019-04-11T23:59:08.125Z,25.57
